createdAt,value
2022-08-11T00:02:32.457Z,19.20
2022-08-11T00:05:07.264Z,19.20
2022-08-11T00:07:36.290Z,19.10
2022-08-11T00:10:06.711Z,19.20
2022-08-11T00:12:34.925Z,19.10
2022-08-11T00:15:03.236Z,19.10
2022-08-11T00:17:32.929Z,19.00
2022-08-11T00:20:16.734Z,19.00
2022-08-11T00:22:47.639Z,18.90
2022-08-11T00:25:19.581Z,18.90
2022-08-11T00:27:49.032Z,18.90
2022-08-11T00:30:17.411Z,18.80
2022-08-11T00:32:54.274Z,18.80
2022-08-11T00:35:52.128Z,18.80
2022-08-11T00:38:17.002Z,18.70
2022-08-11T00:40:54.242Z,18.70
2022-08-11T00:43:27.536Z,18.70
2022-08-11T00:46:24.280Z,18.70
2022-08-11T00:49:12.100Z,18.70
2022-08-11T00:52:04.270Z,18.70
2022-08-11T00:55:20.149Z,18.70
2022-08-11T00:58:33.380Z,18.60
2022-08-11T01:01:17.278Z,18.60
2022-08-11T01:04:41.002Z,18.50
2022-08-11T01:08:02.940Z,18.40
2022-08-11T01:11:12.753Z,18.40
2022-08-11T01:14:13.630Z,18.40
2022-08-11T01:17:11.461Z,18.40
2022-08-11T01:20:45.493Z,18.30
2022-08-11T01:23:43.890Z,18.30
2022-08-11T01:27:01.456Z,18.30
2022-08-11T01:30:16.851Z,18.30
2022-08-11T01:33:58.310Z,18.30
2022-08-11T01:36:58.998Z,18.20
2022-08-11T01:40:09.149Z,18.20
2022-08-11T01:43:28.653Z,18.20
2022-08-11T01:45:58.993Z,18.10
2022-08-11T01:48:38.032Z,18.10
2022-08-11T01:51:30.319Z,18.00
2022-08-11T01:54:04.437Z,18.00
2022-08-11T01:56:57.018Z,18.00
2022-08-11T01:59:30.062Z,17.90
2022-08-11T02:02:48.080Z,17.90
2022-08-11T02:05:30.324Z,17.90
2022-08-11T02:08:04.317Z,17.90
2022-08-11T02:10:57.244Z,17.80
2022-08-11T02:13:36.894Z,17.80
2022-08-11T02:16:14.041Z,17.80
2022-08-11T02:19:01.409Z,17.70
2022-08-11T02:21:55.538Z,17.70
2022-08-11T02:24:28.013Z,17.70
2022-08-11T02:27:03.043Z,17.60
2022-08-11T02:29:34.490Z,17.60
2022-08-11T02:32:31.144Z,17.60
2022-08-11T02:35:10.987Z,17.60
2022-08-11T02:37:47.169Z,17.50
2022-08-11T02:40:27.344Z,17.50
2022-08-11T02:43:10.368Z,17.50
2022-08-11T02:45:56.494Z,17.40
2022-08-11T02:48:57.335Z,17.40
2022-08-11T02:51:31.358Z,17.40
2022-08-11T02:54:08.485Z,17.40
2022-08-11T02:56:44.628Z,17.30
2022-08-11T02:59:47.275Z,17.30
2022-08-11T03:02:23.610Z,17.30
2022-08-11T03:05:02.597Z,17.30
2022-08-11T03:07:35.392Z,17.30
2022-08-11T03:10:10.348Z,17.20
2022-08-11T03:13:03.731Z,17.20
2022-08-11T03:15:57.012Z,17.10
2022-08-11T03:18:27.783Z,17.10
2022-08-11T03:21:03.881Z,17.10
2022-08-11T03:23:38.526Z,17.00
2022-08-11T03:26:11.136Z,17.00
2022-08-11T03:28:54.514Z,17.00
2022-08-11T03:31:27.001Z,17.00
2022-08-11T03:34:06.595Z,17.00
2022-08-11T03:37:16.309Z,17.00
2022-08-11T03:39:56.695Z,17.00
2022-08-11T03:42:29.049Z,16.90
2022-08-11T03:45:26.135Z,16.90
2022-08-11T03:48:07.193Z,16.90
2022-08-11T03:50:55.661Z,16.90
2022-08-11T03:53:42.011Z,16.90
2022-08-11T03:57:11.064Z,16.90
2022-08-11T04:00:19.231Z,16.90
2022-08-11T04:03:38.370Z,16.90
2022-08-11T04:06:55.650Z,16.90
2022-08-11T04:10:11.470Z,16.90
2022-08-11T04:13:47.699Z,16.90
2022-08-11T04:16:39.423Z,16.90
2022-08-11T04:19:54.095Z,16.90
2022-08-11T04:24:35.706Z,16.90
2022-08-11T04:26:57.581Z,16.90
2022-08-11T04:30:03.914Z,17.00
2022-08-11T04:33:05.551Z,17.00
2022-08-11T04:35:50.231Z,17.00
2022-08-11T04:38:47.115Z,17.00
2022-08-11T04:42:12.486Z,17.00
2022-08-11T04:45:03.796Z,17.00
2022-08-11T04:48:25.058Z,17.00
2022-08-11T04:51:25.889Z,17.00
2022-08-11T04:54:19.233Z,17.10
2022-08-11T04:57:05.558Z,17.10
2022-08-11T05:00:21.667Z,17.20
2022-08-11T05:03:23.775Z,17.20
2022-08-11T05:06:48.495Z,17.30
2022-08-11T05:09:35.960Z,17.30
2022-08-11T05:12:35.730Z,17.30
2022-08-11T05:15:21.457Z,17.40
2022-08-11T05:18:29.327Z,17.50
2022-08-11T05:21:16.002Z,17.50
2022-08-11T05:24:07.685Z,17.60
2022-08-11T05:27:01.066Z,17.60
2022-08-11T05:29:58.113Z,17.70
2022-08-11T05:32:44.226Z,17.70
2022-08-11T05:36:00.537Z,17.80
2022-08-11T05:38:19.244Z,17.90
2022-08-11T05:41:08.924Z,17.90
2022-08-11T05:44:19.814Z,18.00
2022-08-11T05:47:04.124Z,18.10
2022-08-11T05:49:52.567Z,18.10
2022-08-11T05:52:41.718Z,18.20
2022-08-11T05:55:28.315Z,18.30
2022-08-11T05:57:59.122Z,18.30
2022-08-11T06:00:27.483Z,18.40
2022-08-11T06:03:00.909Z,18.50
2022-08-11T06:05:38.172Z,18.60
2022-08-11T06:08:07.298Z,18.70
2022-08-11T06:10:36.797Z,18.70
2022-08-11T06:13:07.543Z,18.80
2022-08-11T06:15:45.187Z,18.90
2022-08-11T06:18:14.364Z,19.00
2022-08-11T06:20:48.608Z,19.10
2022-08-11T06:23:18.706Z,19.20
2022-08-11T06:25:47.135Z,19.30
2022-08-11T06:28:20.861Z,19.40
2022-08-11T06:30:49.368Z,19.60
2022-08-11T06:33:20.466Z,19.60
2022-08-11T06:35:57.095Z,19.70
2022-08-11T06:38:40.733Z,19.80
2022-08-11T06:41:33.390Z,20.00
2022-08-11T06:44:10.295Z,20.10
2022-08-11T06:46:40.640Z,20.20
2022-08-11T06:49:30.189Z,20.30
2022-08-11T06:52:01.817Z,20.40
2022-08-11T06:54:34.929Z,20.50
2022-08-11T06:57:36.220Z,20.60
2022-08-11T07:00:25.266Z,20.80
2022-08-11T07:02:54.706Z,20.90
2022-08-11T07:05:25.852Z,21.00
2022-08-11T07:09:14.940Z,21.10
2022-08-11T07:12:19.574Z,21.30
2022-08-11T07:15:10.276Z,21.40
2022-08-11T07:17:44.180Z,21.50
2022-08-11T07:20:29.910Z,21.70
2022-08-11T07:23:18.237Z,21.70
2022-08-11T07:26:06.682Z,21.90
2022-08-11T07:28:52.947Z,22.00
2022-08-11T07:31:29.174Z,22.10
2022-08-11T07:34:11.185Z,22.30
2022-08-11T07:36:48.206Z,22.40
2022-08-11T07:39:19.757Z,22.50
2022-08-11T07:41:48.513Z,22.60
2022-08-11T07:44:17.262Z,22.70
2022-08-11T07:47:06.251Z,22.90
2022-08-11T07:49:54.554Z,23.00
2022-08-11T07:52:30.452Z,23.10
2022-08-11T07:55:02.210Z,23.20
2022-08-11T07:58:14.740Z,23.30
2022-08-11T08:00:55.610Z,23.40
2022-08-11T08:03:54.661Z,23.50
2022-08-11T08:06:41.869Z,23.70
2022-08-11T08:09:27.581Z,23.80
2022-08-11T08:12:13.852Z,23.90
2022-08-11T08:15:01.160Z,24.00
2022-08-11T08:18:20.903Z,24.10
2022-08-11T08:20:38.574Z,24.20
2022-08-11T08:23:08.430Z,24.40
2022-08-11T08:25:39.219Z,24.50
2022-08-11T08:28:08.969Z,24.60
2022-08-11T08:30:49.501Z,24.70
2022-08-11T08:33:21.341Z,24.80
2022-08-11T08:35:54.819Z,24.90
2022-08-11T08:38:25.827Z,25.00
2022-08-11T08:40:56.319Z,25.10
2022-08-11T08:43:24.938Z,25.20
2022-08-11T08:45:55.245Z,25.30
2022-08-11T08:48:23.519Z,25.30
2022-08-11T08:51:12.326Z,25.40
2022-08-11T08:53:52.661Z,25.50
2022-08-11T08:56:25.943Z,25.60
2022-08-11T08:58:54.226Z,25.60
2022-08-11T09:01:22.579Z,25.70
2022-08-11T09:04:05.305Z,25.80
2022-08-11T09:06:39.813Z,25.90
2022-08-11T09:09:10.263Z,25.90
2022-08-11T09:11:56.854Z,26.00
2022-08-11T09:14:46.412Z,26.10
2022-08-11T09:17:14.630Z,26.20
2022-08-11T09:19:42.929Z,26.30
2022-08-11T09:22:37.525Z,26.40
2022-08-11T09:25:25.694Z,26.40
2022-08-11T09:27:54.176Z,26.50
2022-08-11T09:30:22.473Z,26.50
2022-08-11T09:32:50.695Z,26.60
2022-08-11T09:35:19.463Z,26.70
2022-08-11T09:38:04.932Z,26.80
2022-08-11T09:40:34.606Z,26.90
2022-08-11T09:43:23.896Z,27.00
2022-08-11T09:45:54.047Z,27.10
2022-08-11T09:48:23.099Z,27.20
2022-08-11T09:50:52.443Z,27.30
2022-08-11T09:53:37.251Z,27.40
2022-08-11T09:56:30.713Z,27.50
2022-08-11T09:58:59.906Z,27.50
2022-08-11T10:01:32.638Z,27.60
2022-08-11T10:04:16.555Z,27.70
2022-08-11T10:07:04.358Z,27.70
2022-08-11T10:09:39.281Z,27.70
2022-08-11T10:12:12.102Z,27.60
2022-08-11T10:15:02.478Z,27.60
2022-08-11T10:17:33.095Z,27.50
2022-08-11T10:20:04.312Z,27.40
2022-08-11T10:22:52.453Z,27.30
2022-08-11T10:25:38.245Z,27.30
2022-08-11T10:28:32.885Z,27.30
2022-08-11T10:31:16.661Z,27.20
2022-08-11T10:34:04.897Z,27.00
2022-08-11T10:36:34.283Z,26.90
2022-08-11T10:39:04.166Z,26.80
2022-08-11T10:42:08.619Z,26.70
2022-08-11T10:44:40.664Z,26.70
2022-08-11T10:47:26.901Z,26.80
2022-08-11T10:50:08.926Z,27.00
2022-08-11T10:52:55.258Z,27.30
2022-08-11T10:55:41.639Z,27.60
2022-08-11T10:58:27.667Z,27.80
2022-08-11T11:00:58.861Z,28.10
2022-08-11T11:03:27.646Z,28.30
2022-08-11T11:06:13.301Z,28.30
2022-08-11T11:08:55.548Z,27.90
2022-08-11T11:11:45.921Z,27.70
2022-08-11T11:14:33.365Z,27.40
2022-08-11T11:17:23.568Z,27.40
2022-08-11T11:19:55.537Z,27.60
2022-08-11T11:22:42.347Z,27.90
2022-08-11T11:25:22.441Z,27.90
2022-08-11T11:28:29.069Z,27.90
2022-08-11T11:31:07.928Z,27.90
2022-08-11T11:34:06.619Z,28.20
2022-08-11T11:36:46.651Z,28.40
2022-08-11T11:39:15.059Z,28.60
2022-08-11T11:41:43.327Z,28.50
2022-08-11T11:44:13.082Z,28.50
2022-08-11T11:46:41.453Z,28.40
2022-08-11T11:49:16.948Z,28.40
2022-08-11T11:51:46.056Z,28.50
2022-08-11T11:54:18.531Z,28.60
2022-08-11T11:56:46.734Z,28.60
2022-08-11T11:59:32.570Z,28.50
2022-08-11T12:02:00.858Z,28.60
2022-08-11T12:04:42.106Z,28.70
2022-08-11T12:07:27.956Z,28.80
2022-08-11T12:09:56.273Z,28.80
2022-08-11T12:12:44.360Z,28.90
2022-08-11T12:15:12.991Z,29.00
2022-08-11T12:17:41.445Z,29.00
2022-08-11T12:20:33.155Z,29.10
2022-08-11T12:23:19.298Z,29.20
2022-08-11T12:26:25.810Z,29.30
2022-08-11T12:28:53.043Z,29.40
2022-08-11T12:31:25.998Z,29.50
2022-08-11T12:33:56.086Z,29.50
2022-08-11T12:36:25.791Z,29.40
2022-08-11T12:38:54.018Z,29.50
2022-08-11T12:41:43.685Z,29.50
2022-08-11T12:44:37.577Z,29.70
2022-08-11T12:47:06.018Z,29.60
2022-08-11T12:49:52.239Z,29.70
2022-08-11T12:52:26.270Z,29.70
2022-08-11T12:55:00.325Z,29.80
2022-08-11T12:57:53.081Z,29.90
2022-08-11T13:00:39.340Z,30.10
2022-08-11T13:03:26.628Z,30.20
2022-08-11T13:05:56.818Z,30.20
2022-08-11T13:08:27.872Z,30.00
2022-08-11T13:11:14.924Z,29.90
2022-08-11T13:13:52.741Z,29.80
2022-08-11T13:16:24.928Z,29.70
2022-08-11T13:18:53.679Z,29.80
2022-08-11T13:21:22.474Z,29.80
2022-08-11T13:24:01.886Z,29.90
2022-08-11T13:26:47.225Z,29.90
2022-08-11T13:29:22.315Z,30.00
2022-08-11T13:31:50.863Z,30.10
2022-08-11T13:34:19.830Z,30.00
2022-08-11T13:36:49.783Z,30.10
2022-08-11T13:39:19.429Z,30.30
2022-08-11T13:41:48.537Z,30.40
2022-08-11T13:44:24.802Z,30.50
2022-08-11T13:46:55.263Z,30.40
2022-08-11T13:49:23.706Z,30.50
2022-08-11T13:51:51.929Z,30.60
2022-08-11T13:54:23.125Z,30.50
2022-08-11T13:56:54.158Z,30.60
2022-08-11T13:59:29.843Z,30.60
2022-08-11T14:02:28.741Z,30.70
2022-08-11T14:04:55.251Z,30.70
2022-08-11T14:07:25.198Z,30.60
2022-08-11T14:09:59.509Z,30.50
2022-08-11T14:12:46.777Z,30.40
2022-08-11T14:15:19.990Z,30.30
2022-08-11T14:17:52.138Z,30.30
2022-08-11T14:20:39.304Z,30.20
2022-08-11T14:23:10.923Z,30.20
2022-08-11T14:26:02.299Z,30.30
2022-08-11T14:28:38.820Z,30.40
2022-08-11T14:31:10.222Z,30.50
2022-08-11T14:33:58.546Z,30.50
2022-08-11T14:36:28.629Z,30.60
2022-08-11T14:38:56.877Z,30.70
2022-08-11T14:42:11.635Z,30.70
2022-08-11T14:44:50.181Z,30.60
2022-08-11T14:47:23.963Z,30.70
2022-08-11T14:50:09.571Z,30.60
2022-08-11T14:52:39.410Z,30.50
2022-08-11T14:55:26.649Z,30.30
2022-08-11T14:57:56.988Z,30.20
2022-08-11T15:00:25.476Z,30.20
2022-08-11T15:03:10.890Z,30.20
2022-08-11T15:05:56.318Z,30.20
2022-08-11T15:08:42.407Z,30.30
2022-08-11T15:11:32.302Z,30.30
2022-08-11T15:14:02.938Z,30.40
2022-08-11T15:16:48.628Z,30.40
2022-08-11T15:19:16.902Z,30.50
2022-08-11T15:21:59.101Z,30.50
2022-08-11T15:24:30.654Z,30.50
2022-08-11T15:27:16.803Z,30.50
2022-08-11T15:30:04.131Z,30.60
2022-08-11T15:32:49.715Z,30.60
2022-08-11T15:35:39.403Z,30.60
2022-08-11T15:38:08.175Z,30.50
2022-08-11T15:40:56.672Z,30.50
2022-08-11T15:43:47.150Z,30.50
2022-08-11T15:46:20.432Z,30.40
2022-08-11T15:48:51.446Z,30.40
2022-08-11T15:51:25.054Z,30.30
2022-08-11T15:53:56.726Z,30.30
2022-08-11T15:56:26.613Z,30.30
2022-08-11T15:59:41.619Z,30.20
2022-08-11T16:02:20.750Z,30.20
2022-08-11T16:04:49.223Z,30.20
2022-08-11T16:07:18.740Z,30.10
2022-08-11T16:09:54.102Z,30.00
2022-08-11T16:12:30.246Z,29.90
2022-08-11T16:15:20.899Z,30.00
2022-08-11T16:17:52.693Z,30.00
2022-08-11T16:20:22.401Z,30.00
2022-08-11T16:23:00.507Z,30.00
2022-08-11T16:27:01.506Z,30.00
2022-08-11T16:28:20.785Z,30.00
2022-08-11T16:30:49.107Z,30.00
2022-08-11T16:33:48.346Z,30.00
2022-08-11T16:36:25.748Z,30.00
2022-08-11T16:38:54.596Z,30.00
2022-08-11T16:41:43.353Z,29.90
2022-08-11T16:44:36.926Z,29.90
2022-08-11T16:47:06.671Z,29.80
2022-08-11T16:49:37.765Z,29.80
2022-08-11T16:52:08.094Z,29.60
2022-08-11T16:54:36.655Z,29.60
2022-08-11T16:57:27.656Z,29.50
2022-08-11T16:59:58.016Z,29.50
2022-08-11T17:02:44.473Z,29.30
2022-08-11T17:05:35.213Z,29.20
2022-08-11T17:08:24.735Z,29.00
2022-08-11T17:11:13.287Z,28.90
2022-08-11T17:13:45.972Z,28.80
2022-08-11T17:16:15.471Z,28.70
2022-08-11T17:18:50.530Z,28.60
2022-08-11T17:21:26.939Z,28.50
2022-08-11T17:23:56.071Z,28.40
2022-08-11T17:26:51.534Z,28.30
2022-08-11T17:29:21.777Z,28.20
2022-08-11T17:32:07.452Z,28.10
2022-08-11T17:34:53.632Z,28.10
2022-08-11T17:37:23.368Z,27.90
2022-08-11T17:39:52.016Z,27.80
2022-08-11T17:42:37.967Z,27.70
2022-08-11T17:45:25.126Z,27.60
2022-08-11T17:48:10.663Z,27.50
2022-08-11T17:50:38.847Z,27.30
2022-08-11T17:53:34.579Z,27.30
2022-08-11T17:56:28.851Z,27.10
2022-08-11T17:59:15.216Z,27.10
2022-08-11T18:01:44.462Z,27.00
2022-08-11T18:04:12.914Z,26.90
2022-08-11T18:06:41.576Z,26.80
2022-08-11T18:09:32.350Z,26.70
2022-08-11T18:12:18.696Z,26.60
2022-08-11T18:15:07.262Z,26.50
2022-08-11T18:17:52.877Z,26.40
2022-08-11T18:20:38.915Z,26.30
2022-08-11T18:23:40.583Z,26.20
2022-08-11T18:26:34.895Z,26.10
2022-08-11T18:29:20.767Z,25.90
2022-08-11T18:32:07.126Z,25.80
2022-08-11T18:34:59.136Z,25.70
2022-08-11T18:37:47.422Z,25.60
2022-08-11T18:40:36.525Z,25.40
2022-08-11T18:43:27.318Z,25.30
2022-08-11T18:46:16.142Z,25.20
2022-08-11T18:49:11.804Z,25.10
2022-08-11T18:52:00.478Z,24.90
2022-08-11T18:54:48.869Z,24.80
2022-08-11T18:57:53.836Z,24.70
2022-08-11T19:00:42.347Z,24.60
2022-08-11T19:03:29.207Z,24.50
2022-08-11T19:06:38.317Z,24.40
2022-08-11T19:09:25.362Z,24.20
2022-08-11T19:12:10.986Z,24.10
2022-08-11T19:14:56.566Z,24.00
2022-08-11T19:17:46.013Z,23.90
2022-08-11T19:20:36.697Z,23.80
2022-08-11T19:23:24.171Z,23.70
2022-08-11T19:26:10.228Z,23.60
2022-08-11T19:28:56.377Z,23.50
2022-08-11T19:31:44.825Z,23.40
2022-08-11T19:34:32.848Z,23.30
2022-08-11T19:37:22.144Z,23.30
2022-08-11T19:40:11.245Z,23.20
2022-08-11T19:42:56.870Z,23.10
2022-08-11T19:45:42.500Z,23.00
2022-08-11T19:48:32.552Z,22.90
2022-08-11T19:51:19.680Z,22.80
2022-08-11T19:54:06.284Z,22.80
2022-08-11T19:56:52.543Z,22.70
2022-08-11T19:59:40.535Z,22.60
2022-08-11T20:02:26.811Z,22.60
2022-08-11T20:05:12.636Z,22.50
2022-08-11T20:07:59.600Z,22.40
2022-08-11T20:10:45.491Z,22.30
2022-08-11T20:13:31.086Z,22.30
2022-08-11T20:16:16.659Z,22.20
2022-08-11T20:19:02.281Z,22.10
2022-08-11T20:21:47.969Z,22.10
2022-08-11T20:24:35.338Z,22.10
2022-08-11T20:27:24.948Z,22.00
2022-08-11T20:30:11.083Z,22.00
2022-08-11T20:32:56.649Z,21.90
2022-08-11T20:35:42.318Z,21.90
2022-08-11T20:38:27.880Z,21.80
2022-08-11T20:41:16.261Z,21.80
2022-08-11T20:44:08.303Z,21.70
2022-08-11T20:46:57.744Z,21.70
2022-08-11T20:49:53.896Z,21.60
2022-08-11T20:52:47.162Z,21.60
2022-08-11T20:55:46.420Z,21.60
2022-08-11T21:01:46.181Z,21.50
2022-08-11T21:04:32.492Z,21.40
2022-08-11T21:07:27.086Z,21.40
2022-08-11T21:10:22.860Z,21.40
2022-08-11T21:13:23.973Z,21.30
2022-08-11T21:16:25.251Z,21.20
2022-08-11T21:19:16.483Z,21.10
2022-08-11T21:22:02.235Z,21.10
2022-08-11T21:24:49.420Z,21.10
2022-08-11T21:27:35.540Z,21.10
2022-08-11T21:30:21.227Z,21.00
2022-08-11T21:33:08.397Z,21.00
2022-08-11T21:35:54.087Z,20.90
2022-08-11T21:38:39.606Z,20.90
2022-08-11T21:41:25.361Z,20.90
2022-08-11T21:44:10.942Z,20.80
2022-08-11T21:46:57.054Z,20.80
2022-08-11T21:49:44.484Z,20.80
2022-08-11T21:52:30.098Z,20.80
2022-08-11T21:55:15.904Z,20.80
2022-08-11T21:58:57.974Z,20.70
2022-08-11T22:01:52.540Z,20.70
2022-08-11T22:04:38.404Z,20.70
2022-08-11T22:07:25.698Z,20.70
2022-08-11T22:10:27.609Z,20.70
2022-08-11T22:13:16.683Z,20.60
2022-08-11T22:16:02.534Z,20.60
2022-08-11T22:18:48.131Z,20.60
2022-08-11T22:22:02.413Z,20.60
2022-08-11T22:24:43.515Z,20.60
2022-08-11T22:27:29.337Z,20.50
2022-08-11T22:30:14.897Z,20.50
2022-08-11T22:33:00.976Z,20.40
2022-08-11T22:35:47.026Z,20.40
2022-08-11T22:38:33.515Z,20.40
2022-08-11T22:41:22.158Z,20.30
2022-08-11T22:44:08.130Z,20.30
2022-08-11T22:46:53.750Z,20.20
2022-08-11T22:49:57.191Z,20.20
2022-08-11T22:52:44.198Z,20.20
2022-08-11T22:55:29.804Z,20.20
2022-08-11T22:58:16.982Z,20.10
2022-08-11T23:01:02.656Z,20.00
2022-08-11T23:03:49.190Z,20.00
2022-08-11T23:06:34.718Z,20.00
2022-08-11T23:09:20.541Z,20.00
2022-08-11T23:12:10.335Z,19.90
2022-08-11T23:14:58.896Z,19.90
2022-08-11T23:17:45.176Z,19.90
2022-08-11T23:20:39.837Z,19.80
2022-08-11T23:23:38.526Z,19.80
2022-08-11T23:26:24.547Z,19.70
2022-08-11T23:29:11.082Z,19.70
2022-08-11T23:31:58.148Z,19.70
2022-08-11T23:35:04.578Z,19.60
2022-08-11T23:37:55.768Z,19.50
2022-08-11T23:40:45.614Z,19.50
2022-08-11T23:43:38.674Z,19.40
2022-08-11T23:46:24.482Z,19.40
2022-08-11T23:49:15.554Z,19.30
2022-08-11T23:52:01.598Z,19.30
2022-08-11T23:54:47.137Z,19.30
2022-08-11T23:57:32.958Z,19.30
